createdAt,value
2023-01-26T00:01:27.761Z,11.18
2023-01-26T00:03:54.506Z,10.45
2023-01-26T00:06:22.284Z,11.82
2023-01-26T00:08:51.430Z,11.38
2023-01-26T00:11:30.246Z,11.15
2023-01-26T00:13:58.764Z,11.32
2023-01-26T00:16:26.408Z,11.32
2023-01-26T00:18:54.035Z,10.10
2023-01-26T00:21:22.185Z,10.82
2023-01-26T00:23:50.297Z,10.23
2023-01-26T00:26:19.504Z,10.63
2023-01-26T00:28:46.313Z,10.85
2023-01-26T00:31:15.710Z,10.60
2023-01-26T00:33:42.458Z,11.23
2023-01-26T00:36:09.447Z,11.35
2023-01-26T00:38:36.063Z,12.00
2023-01-26T00:41:02.748Z,11.65
2023-01-26T00:43:29.548Z,11.57
2023-01-26T00:45:56.309Z,11.00
2023-01-26T00:48:24.648Z,11.60
2023-01-26T00:50:52.851Z,11.25
2023-01-26T00:53:19.956Z,12.32
2023-01-26T00:55:46.582Z,10.98
2023-01-26T00:58:13.348Z,11.25
2023-01-26T01:00:40.044Z,10.82
2023-01-26T01:03:07.406Z,11.48
2023-01-26T01:05:34.853Z,11.38
2023-01-26T01:08:01.973Z,11.13
2023-01-26T01:10:28.977Z,11.65
2023-01-26T01:12:56.702Z,13.05
2023-01-26T01:15:24.183Z,11.32
2023-01-26T01:17:51.192Z,9.90
2023-01-26T01:20:17.996Z,10.20
2023-01-26T01:22:44.789Z,11.18
2023-01-26T01:25:11.549Z,11.05
2023-01-26T01:27:38.197Z,10.93
2023-01-26T01:30:08.083Z,10.85
2023-01-26T01:32:39.966Z,9.95
2023-01-26T01:35:07.549Z,10.50
2023-01-26T01:37:34.220Z,11.13
2023-01-26T01:40:00.917Z,9.40
2023-01-26T01:42:28.145Z,8.73
2023-01-26T01:45:32.101Z,9.15
2023-01-26T01:48:03.794Z,9.40
2023-01-26T01:50:37.291Z,9.27
2023-01-26T01:53:05.582Z,9.82
2023-01-26T01:55:32.579Z,9.93
2023-01-26T01:58:01.628Z,10.02
2023-01-26T02:00:29.063Z,10.15
2023-01-26T02:03:19.398Z,9.65
2023-01-26T02:05:54.985Z,10.50
2023-01-26T02:08:27.061Z,8.65
2023-01-26T02:10:58.391Z,9.13
2023-01-26T02:13:26.440Z,8.05
2023-01-26T02:15:53.645Z,9.13
2023-01-26T02:18:20.422Z,8.35
2023-01-26T02:20:51.799Z,8.13
2023-01-26T02:23:22.502Z,8.48
2023-01-26T02:26:12.372Z,7.60
2023-01-26T02:28:39.914Z,8.05
2023-01-26T02:31:07.931Z,8.10
2023-01-26T02:33:35.341Z,8.05
2023-01-26T02:36:03.465Z,7.85
2023-01-26T02:38:59.185Z,8.15
2023-01-26T02:41:44.586Z,7.53
2023-01-26T02:44:12.724Z,8.68
2023-01-26T02:46:39.719Z,7.43
2023-01-26T02:49:25.080Z,7.72
2023-01-26T02:51:51.728Z,8.50
2023-01-26T02:54:36.972Z,7.93
2023-01-26T02:57:03.638Z,7.82
2023-01-26T02:59:30.240Z,9.10
2023-01-26T03:01:58.232Z,8.60
2023-01-26T03:04:25.135Z,438.42
2023-01-26T03:06:52.020Z,414.52
2023-01-26T03:09:18.737Z,143.13
2023-01-26T03:11:45.402Z,92.72
2023-01-26T03:14:13.559Z,43.80
2023-01-26T03:16:40.652Z,29.70
2023-01-26T03:19:28.311Z,23.08
2023-01-26T03:22:13.880Z,24.40
2023-01-26T03:24:59.387Z,14.90
2023-01-26T03:27:29.124Z,11.35
2023-01-26T03:29:57.161Z,10.15
2023-01-26T03:32:25.242Z,9.45
2023-01-26T03:34:52.121Z,8.70
2023-01-26T03:37:22.700Z,8.40
2023-01-26T03:40:11.029Z,11.20
2023-01-26T03:42:57.047Z,9.93
2023-01-26T03:45:42.577Z,8.30
2023-01-26T03:48:30.708Z,8.57
2023-01-26T03:51:16.474Z,7.75
2023-01-26T03:54:02.282Z,8.60
2023-01-26T03:56:32.987Z,8.20
2023-01-26T03:59:12.948Z,9.13
2023-01-26T04:02:03.314Z,7.90
2023-01-26T04:04:48.257Z,8.20
2023-01-26T04:07:33.861Z,7.35
2023-01-26T04:10:00.545Z,8.57
2023-01-26T04:12:27.174Z,8.23
2023-01-26T04:15:12.527Z,9.25
2023-01-26T04:17:57.751Z,9.02
2023-01-26T04:20:43.128Z,8.63
2023-01-26T04:23:18.549Z,8.05
2023-01-26T04:25:45.193Z,8.05
2023-01-26T04:28:11.791Z,10.38
2023-01-26T04:30:39.167Z,10.43
2023-01-26T04:33:05.840Z,8.77
2023-01-26T04:35:33.712Z,10.02
2023-01-26T04:38:00.359Z,8.82
2023-01-26T04:40:27.104Z,11.15
2023-01-26T04:42:53.745Z,9.45
2023-01-26T04:45:20.349Z,9.38
2023-01-26T04:47:46.972Z,11.73
2023-01-26T04:50:13.897Z,10.68
2023-01-26T04:52:40.715Z,11.52
2023-01-26T04:55:07.783Z,11.55
2023-01-26T04:57:34.391Z,9.75
2023-01-26T05:00:01.052Z,9.70
2023-01-26T05:02:27.981Z,10.82
2023-01-26T05:04:54.844Z,8.77
2023-01-26T05:07:22.099Z,9.88
2023-01-26T05:09:49.445Z,9.18
2023-01-26T05:12:34.363Z,8.55
2023-01-26T05:15:01.068Z,9.07
2023-01-26T05:17:27.711Z,10.50
2023-01-26T05:19:54.343Z,10.18
2023-01-26T05:22:20.983Z,12.98
2023-01-26T05:24:48.082Z,16.95
2023-01-26T05:27:32.702Z,12.50
2023-01-26T05:30:02.095Z,11.93
2023-01-26T05:32:30.041Z,12.50
2023-01-26T05:34:57.418Z,11.55
2023-01-26T05:37:25.797Z,11.05
2023-01-26T05:39:52.742Z,10.45
2023-01-26T05:42:19.427Z,10.80
2023-01-26T05:44:46.015Z,9.73
2023-01-26T05:47:12.661Z,9.93
2023-01-26T05:49:42.781Z,9.82
2023-01-26T05:52:11.161Z,10.20
2023-01-26T05:54:37.794Z,9.52
2023-01-26T05:57:04.591Z,11.68
2023-01-26T05:59:31.184Z,32.33
2023-01-26T06:01:57.912Z,14.73
2023-01-26T06:04:24.779Z,10.50
2023-01-26T06:06:55.807Z,9.82
2023-01-26T06:09:22.996Z,9.95
2023-01-26T06:11:49.854Z,9.23
2023-01-26T06:14:16.601Z,10.38
2023-01-26T06:16:43.259Z,10.15
2023-01-26T06:19:10.637Z,9.75
2023-01-26T06:21:37.458Z,10.35
2023-01-26T06:24:04.518Z,9.75
2023-01-26T06:26:31.160Z,9.95
2023-01-26T06:28:57.901Z,11.57
2023-01-26T06:31:25.074Z,11.68
2023-01-26T06:33:51.790Z,12.73
2023-01-26T06:36:18.414Z,16.23
2023-01-26T06:38:47.461Z,23.67
2023-01-26T06:41:14.447Z,18.30
2023-01-26T06:43:45.293Z,14.98
2023-01-26T06:46:12.487Z,18.90
2023-01-26T06:48:39.484Z,12.93
2023-01-26T06:51:42.645Z,10.30
2023-01-26T06:56:37.577Z,9.70
2023-01-26T06:59:05.479Z,10.32
2023-01-26T07:01:39.069Z,9.90
2023-01-26T07:04:05.911Z,10.98
2023-01-26T07:06:32.622Z,12.48
2023-01-26T07:08:59.266Z,10.90
2023-01-26T07:11:25.975Z,9.50
2023-01-26T07:13:52.663Z,10.10
2023-01-26T07:16:19.460Z,10.68
2023-01-26T07:18:46.166Z,10.13
2023-01-26T07:21:15.801Z,11.38
2023-01-26T07:23:42.562Z,10.05
2023-01-26T07:26:09.637Z,10.30
2023-01-26T07:28:37.616Z,10.45
2023-01-26T07:31:07.075Z,10.18
2023-01-26T07:33:34.678Z,9.38
2023-01-26T07:36:01.775Z,8.70
2023-01-26T07:38:31.267Z,8.73
2023-01-26T07:40:58.029Z,9.57
2023-01-26T07:43:24.708Z,9.32
2023-01-26T07:45:53.862Z,9.98
2023-01-26T07:48:22.884Z,9.02
2023-01-26T07:50:49.804Z,10.10
2023-01-26T07:53:22.792Z,9.57
2023-01-26T07:55:49.600Z,8.00
2023-01-26T07:58:17.971Z,8.82
2023-01-26T08:00:47.234Z,8.18
2023-01-26T08:03:14.152Z,7.97
2023-01-26T08:05:40.782Z,8.27
2023-01-26T08:08:09.633Z,8.43
2023-01-26T08:10:36.277Z,8.40
2023-01-26T08:13:03.056Z,8.65
2023-01-26T08:15:30.416Z,8.00
2023-01-26T08:17:57.324Z,7.45
2023-01-26T08:20:23.974Z,8.25
2023-01-26T08:22:50.659Z,8.75
2023-01-26T08:25:17.285Z,8.27
2023-01-26T08:27:44.106Z,8.68
2023-01-26T08:30:11.879Z,7.35
2023-01-26T08:32:38.714Z,8.05
2023-01-26T08:35:05.783Z,8.73
2023-01-26T08:37:33.656Z,9.38
2023-01-26T08:40:00.258Z,8.65
2023-01-26T08:42:27.227Z,8.93
2023-01-26T08:44:54.048Z,10.65
2023-01-26T08:47:20.704Z,10.27
2023-01-26T08:49:47.351Z,9.35
2023-01-26T08:52:14.073Z,9.00
2023-01-26T08:54:40.697Z,8.85
2023-01-26T08:57:07.317Z,9.80
2023-01-26T08:59:33.972Z,9.00
2023-01-26T09:02:00.800Z,9.00
2023-01-26T09:04:27.631Z,9.43
2023-01-26T09:06:54.457Z,8.00
2023-01-26T09:09:21.180Z,8.57
2023-01-26T09:11:47.821Z,7.45
2023-01-26T09:14:14.550Z,8.48
2023-01-26T09:16:41.403Z,9.65
2023-01-26T09:19:08.153Z,9.32
2023-01-26T09:21:34.792Z,8.93
2023-01-26T09:24:02.494Z,9.48
2023-01-26T09:26:30.712Z,12.02
2023-01-26T09:28:57.906Z,8.77
2023-01-26T09:31:24.635Z,8.63
2023-01-26T09:33:51.723Z,8.05
2023-01-26T09:36:18.936Z,9.52
2023-01-26T09:38:45.742Z,9.80
2023-01-26T09:42:09.662Z,8.80
2023-01-26T09:44:59.696Z,8.70
2023-01-26T09:47:35.931Z,9.05
2023-01-26T09:50:11.556Z,8.35
2023-01-26T09:52:56.083Z,9.43
2023-01-26T09:55:24.831Z,8.25
2023-01-26T09:57:58.443Z,8.60
2023-01-26T10:00:43.852Z,8.93
2023-01-26T10:03:27.267Z,10.05
2023-01-26T10:06:29.487Z,9.10
2023-01-26T10:09:00.639Z,8.20
2023-01-26T10:11:33.273Z,8.75
2023-01-26T10:14:11.514Z,8.93
2023-01-26T10:16:38.500Z,8.40
2023-01-26T10:19:28.649Z,8.00
2023-01-26T10:21:57.479Z,9.88
2023-01-26T10:24:24.311Z,8.95
2023-01-26T10:26:56.556Z,8.77
2023-01-26T10:29:24.022Z,10.32
2023-01-26T10:31:50.767Z,10.90
2023-01-26T10:34:26.335Z,9.60
2023-01-26T10:37:02.454Z,9.18
2023-01-26T10:39:29.070Z,9.05
2023-01-26T10:42:01.004Z,8.65
2023-01-26T10:44:37.893Z,7.53
2023-01-26T10:47:25.956Z,8.10
2023-01-26T10:49:52.652Z,10.93
2023-01-26T10:52:25.107Z,9.73
2023-01-26T10:57:32.650Z,7.50
2023-01-26T11:00:08.606Z,10.32
2023-01-26T11:02:36.845Z,9.10
2023-01-26T11:05:24.427Z,10.20
2023-01-26T11:07:55.322Z,9.32
2023-01-26T11:10:34.399Z,9.20
2023-01-26T11:13:20.283Z,10.68
2023-01-26T11:16:03.169Z,9.05
2023-01-26T11:19:16.204Z,9.20
2023-01-26T11:22:05.883Z,9.05
2023-01-26T11:24:42.641Z,9.35
2023-01-26T11:27:31.461Z,9.68
2023-01-26T11:30:24.007Z,9.60
2023-01-26T11:33:07.449Z,8.90
2023-01-26T11:35:54.346Z,8.23
2023-01-26T11:38:35.963Z,9.15
2023-01-26T11:41:32.469Z,9.30
2023-01-26T11:44:38.033Z,8.82
2023-01-26T11:47:36.421Z,10.55
2023-01-26T11:50:43.517Z,9.27
2023-01-26T11:53:35.782Z,10.00
2023-01-26T11:59:25.202Z,10.88
2023-01-26T12:02:01.745Z,10.75
2023-01-26T12:04:33.234Z,10.68
2023-01-26T12:07:11.576Z,10.70
2023-01-26T12:09:44.142Z,10.20
2023-01-26T12:15:03.290Z,11.40
2023-01-26T12:18:17.174Z,10.35
2023-01-26T12:21:02.969Z,10.63
2023-01-26T12:23:51.559Z,12.88
2023-01-26T12:26:22.816Z,10.02
2023-01-26T12:29:25.677Z,10.73
2023-01-26T12:32:05.673Z,11.18
2023-01-26T12:34:33.881Z,12.20
2023-01-26T12:37:23.376Z,10.48
2023-01-26T12:40:36.224Z,11.13
2023-01-26T12:43:05.765Z,11.60
2023-01-26T12:45:39.346Z,12.80
2023-01-26T12:48:18.007Z,11.93
2023-01-26T12:50:50.806Z,11.77
2023-01-26T12:53:30.200Z,11.75
2023-01-26T12:56:13.250Z,13.32
2023-01-26T12:58:44.504Z,11.60
2023-01-26T13:01:15.959Z,14.73
2023-01-26T13:03:46.053Z,22.55
2023-01-26T13:06:24.712Z,25.70
2023-01-26T13:09:19.149Z,13.73
2023-01-26T13:11:57.096Z,21.23
2023-01-26T13:14:57.959Z,14.05
2023-01-26T13:17:55.240Z,16.15
2023-01-26T13:20:48.532Z,11.05
2023-01-26T13:23:43.625Z,18.60
2023-01-26T13:26:36.123Z,12.90
2023-01-26T13:29:39.526Z,10.93
2023-01-26T13:32:52.595Z,10.20
2023-01-26T13:35:23.066Z,11.23
2023-01-26T13:38:19.228Z,9.40
2023-01-26T13:40:50.780Z,12.48
2023-01-26T13:43:30.348Z,10.55
2023-01-26T13:46:07.175Z,13.57
2023-01-26T13:48:53.659Z,11.32
2023-01-26T13:51:28.225Z,11.98
2023-01-26T13:54:02.462Z,12.68
2023-01-26T13:56:37.556Z,16.05
2023-01-26T13:59:19.418Z,12.55
2023-01-26T14:01:48.323Z,12.13
2023-01-26T14:04:20.123Z,14.13
2023-01-26T14:06:52.959Z,11.52
2023-01-26T14:09:20.248Z,11.40
2023-01-26T14:11:56.227Z,13.05
2023-01-26T14:14:29.510Z,16.33
2023-01-26T14:16:59.240Z,73.82
2023-01-26T14:19:27.733Z,34.75
2023-01-26T14:22:01.430Z,29.73
2023-01-26T14:24:39.576Z,25.08
2023-01-26T14:27:20.511Z,27.20
2023-01-26T14:29:47.727Z,65.13
2023-01-26T14:32:16.943Z,26.52
2023-01-26T14:34:58.516Z,23.60
2023-01-26T14:37:26.492Z,20.33
2023-01-26T14:40:14.948Z,15.15
2023-01-26T14:42:42.799Z,17.58
2023-01-26T14:45:14.140Z,21.75
2023-01-26T14:47:45.452Z,21.17
2023-01-26T14:50:17.742Z,20.33
2023-01-26T14:52:45.342Z,17.90
2023-01-26T14:55:36.707Z,20.38
2023-01-26T14:58:13.266Z,15.23
2023-01-26T15:00:40.098Z,14.57
2023-01-26T15:03:23.987Z,17.42
2023-01-26T15:06:17.067Z,12.75
2023-01-26T15:08:58.407Z,20.05
2023-01-26T15:11:52.737Z,49.42
2023-01-26T15:14:44.118Z,95.60
2023-01-26T15:17:27.693Z,34.85
2023-01-26T15:19:54.475Z,30.17
2023-01-26T15:22:26.335Z,22.02
2023-01-26T15:25:20.536Z,12.32
2023-01-26T15:27:59.031Z,9.80
2023-01-26T15:30:31.890Z,10.02
2023-01-26T15:32:59.133Z,9.43
2023-01-26T15:35:30.233Z,9.85
2023-01-26T15:38:11.566Z,9.00
2023-01-26T15:40:38.717Z,8.98
2023-01-26T15:43:16.037Z,9.32
2023-01-26T15:45:47.202Z,9.05
2023-01-26T15:48:13.775Z,8.38
2023-01-26T15:50:40.390Z,8.70
2023-01-26T15:53:12.800Z,8.77
2023-01-26T15:55:39.619Z,7.50
2023-01-26T15:58:06.308Z,7.72
2023-01-26T16:00:32.969Z,8.98
2023-01-26T16:03:03.716Z,8.30
2023-01-26T16:05:30.438Z,7.72
2023-01-26T16:07:56.971Z,7.50
2023-01-26T16:10:23.699Z,7.22
2023-01-26T16:12:53.126Z,7.95
2023-01-26T16:15:55.528Z,7.57
2023-01-26T16:18:22.142Z,6.57
2023-01-26T16:20:50.082Z,8.30
2023-01-26T16:23:28.724Z,8.30
2023-01-26T16:25:55.873Z,7.53
2023-01-26T16:28:22.498Z,7.47
2023-01-26T16:30:51.279Z,7.97
2023-01-26T16:33:21.257Z,8.02
2023-01-26T16:35:48.240Z,10.20
2023-01-26T16:38:14.909Z,9.15
2023-01-26T16:40:46.334Z,9.63
2023-01-26T16:43:22.035Z,10.00
2023-01-26T16:45:50.235Z,8.05
2023-01-26T16:48:17.326Z,8.25
2023-01-26T16:50:44.890Z,10.20
2023-01-26T16:53:28.938Z,10.25
2023-01-26T16:55:56.094Z,9.85
2023-01-26T16:58:26.174Z,11.13
2023-01-26T17:00:54.165Z,10.63
2023-01-26T17:03:21.079Z,9.88
2023-01-26T17:05:47.711Z,11.65
2023-01-26T17:08:14.273Z,9.80
2023-01-26T17:10:55.496Z,10.10
2023-01-26T17:13:27.383Z,9.57
2023-01-26T17:15:56.593Z,8.65
2023-01-26T17:18:23.608Z,9.88
2023-01-26T17:20:50.198Z,10.48
2023-01-26T17:23:16.770Z,8.63
2023-01-26T17:25:43.339Z,8.45
2023-01-26T17:28:09.900Z,10.02
2023-01-26T17:30:37.459Z,9.68
2023-01-26T17:33:04.231Z,9.73
2023-01-26T17:35:30.862Z,8.85
2023-01-26T17:37:57.607Z,8.73
2023-01-26T17:40:24.227Z,10.55
2023-01-26T17:42:50.977Z,9.20
2023-01-26T17:45:17.742Z,11.43
2023-01-26T17:47:44.316Z,12.55
2023-01-26T17:50:11.192Z,12.05
2023-01-26T17:52:37.811Z,12.05
2023-01-26T17:55:06.229Z,10.25
2023-01-26T17:57:33.848Z,10.77
2023-01-26T18:00:00.531Z,10.20
2023-01-26T18:02:27.195Z,9.80
2023-01-26T18:04:53.952Z,11.38
2023-01-26T18:07:20.699Z,9.18
2023-01-26T18:09:47.256Z,9.88
2023-01-26T18:12:13.830Z,10.48
2023-01-26T18:14:40.419Z,9.95
2023-01-26T18:17:07.011Z,10.27
2023-01-26T18:19:33.843Z,10.10
2023-01-26T18:22:00.447Z,11.48
2023-01-26T18:24:27.183Z,10.27
2023-01-26T18:26:53.750Z,10.45
2023-01-26T18:29:20.310Z,11.45
2023-01-26T18:31:48.063Z,9.75
2023-01-26T18:34:14.791Z,11.82
2023-01-26T18:36:41.477Z,10.70
2023-01-26T18:39:12.873Z,10.48
2023-01-26T18:41:40.814Z,10.63
2023-01-26T18:44:08.313Z,10.60
2023-01-26T18:46:35.510Z,10.90
2023-01-26T18:49:03.492Z,11.70
2023-01-26T18:51:33.131Z,12.18
2023-01-26T18:54:00.252Z,11.38
2023-01-26T18:56:27.381Z,12.07
2023-01-26T18:58:54.786Z,11.40
2023-01-26T19:01:22.246Z,11.45
2023-01-26T19:03:55.106Z,12.75
2023-01-26T19:06:23.776Z,14.40
2023-01-26T19:08:57.635Z,13.13
2023-01-26T19:11:26.590Z,13.15
2023-01-26T19:13:53.463Z,11.98
2023-01-26T19:16:20.163Z,12.07
2023-01-26T19:18:47.091Z,12.00
2023-01-26T19:21:13.829Z,11.93
2023-01-26T19:23:42.597Z,10.98
2023-01-26T19:26:11.558Z,11.32
2023-01-26T19:28:41.220Z,11.70
2023-01-26T19:31:09.404Z,13.70
2023-01-26T19:33:36.507Z,12.45
2023-01-26T19:36:05.142Z,12.20
2023-01-26T19:38:33.260Z,11.82
2023-01-26T19:41:01.876Z,12.50
2023-01-26T19:43:28.813Z,12.38
2023-01-26T19:45:56.824Z,11.95
2023-01-26T19:48:25.769Z,13.75
2023-01-26T19:51:03.428Z,13.27
2023-01-26T19:53:32.220Z,12.45
2023-01-26T19:56:01.848Z,13.98
2023-01-26T19:58:28.477Z,12.88
2023-01-26T20:01:02.641Z,13.10
2023-01-26T20:03:29.362Z,13.68
2023-01-26T20:05:57.222Z,14.02
2023-01-26T20:08:24.573Z,13.27
2023-01-26T20:10:51.206Z,13.63
2023-01-26T20:13:17.985Z,13.68
2023-01-26T20:15:44.538Z,12.57
2023-01-26T20:18:11.210Z,13.40
2023-01-26T20:20:38.035Z,12.85
2023-01-26T20:23:04.846Z,12.77
2023-01-26T20:25:31.458Z,12.60
2023-01-26T20:27:58.017Z,13.43
2023-01-26T20:30:24.602Z,15.65
2023-01-26T20:32:54.618Z,12.85
2023-01-26T20:35:21.636Z,13.95
2023-01-26T20:37:48.283Z,12.30
2023-01-26T20:40:15.300Z,13.88
2023-01-26T20:42:41.962Z,12.90
2023-01-26T20:45:08.845Z,13.52
2023-01-26T20:47:38.207Z,13.73
2023-01-26T20:50:06.067Z,13.73
2023-01-26T20:52:32.749Z,14.80
2023-01-26T20:54:59.388Z,15.05
2023-01-26T20:57:25.989Z,13.23
2023-01-26T20:59:52.645Z,13.55
2023-01-26T21:02:19.300Z,13.90
2023-01-26T21:04:46.101Z,13.40
2023-01-26T21:07:12.983Z,13.65
2023-01-26T21:09:40.275Z,12.52
2023-01-26T21:12:06.873Z,11.95
2023-01-26T21:14:33.724Z,11.70
2023-01-26T21:17:00.502Z,12.85
2023-01-26T21:19:27.235Z,20.52
2023-01-26T21:21:53.949Z,14.82
2023-01-26T21:24:20.617Z,14.38
2023-01-26T21:26:47.976Z,14.43
2023-01-26T21:29:16.064Z,13.20
2023-01-26T21:31:45.215Z,13.20
2023-01-26T21:34:12.561Z,11.90
2023-01-26T21:36:39.200Z,14.60
2023-01-26T21:39:10.673Z,12.90
2023-01-26T21:41:55.618Z,14.07
2023-01-26T21:44:27.507Z,12.88
2023-01-26T21:46:59.886Z,14.00
2023-01-26T21:49:28.444Z,13.73
2023-01-26T21:52:14.097Z,12.80
2023-01-26T21:54:41.186Z,13.70
2023-01-26T21:57:28.338Z,12.25
2023-01-26T21:59:55.875Z,12.75
2023-01-26T22:02:23.075Z,12.30
2023-01-26T22:04:49.718Z,12.35
2023-01-26T22:07:16.330Z,12.63
2023-01-26T22:09:42.936Z,12.40
2023-01-26T22:12:09.609Z,14.50
2023-01-26T22:14:36.239Z,12.98
2023-01-26T22:17:02.854Z,13.32
2023-01-26T22:19:29.494Z,13.20
2023-01-26T22:21:56.651Z,15.80
2023-01-26T22:24:23.359Z,16.20
2023-01-26T22:26:50.169Z,17.10
2023-01-26T22:29:16.773Z,16.77
2023-01-26T22:31:43.438Z,16.42
2023-01-26T22:34:11.835Z,16.80
2023-01-26T22:36:39.229Z,16.50
2023-01-26T22:39:05.846Z,14.57
2023-01-26T22:41:34.388Z,15.77
2023-01-26T22:44:01.164Z,14.93
2023-01-26T22:46:30.253Z,13.32
2023-01-26T22:48:58.407Z,13.55
2023-01-26T22:51:29.573Z,13.93
2023-01-26T22:53:57.883Z,12.90
2023-01-26T22:56:25.185Z,13.13
2023-01-26T22:58:59.060Z,14.30
2023-01-26T23:01:31.550Z,11.98
2023-01-26T23:03:59.170Z,13.43
2023-01-26T23:06:26.334Z,13.18
2023-01-26T23:08:53.509Z,12.65
2023-01-26T23:11:25.409Z,13.25
2023-01-26T23:13:53.444Z,12.57
2023-01-26T23:16:21.386Z,12.43
2023-01-26T23:18:48.062Z,12.10
2023-01-26T23:21:14.748Z,13.95
2023-01-26T23:23:41.658Z,11.57
2023-01-26T23:26:09.613Z,13.45
2023-01-26T23:28:38.523Z,12.70
2023-01-26T23:31:05.803Z,13.23
2023-01-26T23:33:34.153Z,12.93
2023-01-26T23:36:01.026Z,12.70
2023-01-26T23:38:29.277Z,11.93
2023-01-26T23:40:56.405Z,12.52
2023-01-26T23:43:23.602Z,11.63
2023-01-26T23:45:50.878Z,12.60
2023-01-26T23:48:18.272Z,12.50
2023-01-26T23:50:45.314Z,11.55
2023-01-26T23:53:12.618Z,11.73
2023-01-26T23:55:43.490Z,13.80
2023-01-26T23:58:11.245Z,12.88
